Time;durP1;ratioP1;P1;durP2;ratioP2;P2;SDS_P1;SDS_P2;PMS_P1;PMS_P2;Temp;Humidity;BMP_temperature;BMP_pressure;BME280_temperature;BME280_humidity;BME280_pressure;Samples;Min_cycle;Max_cycle;Signal;HPM_P1;HPM_P2
2022/03/12 00:00:10;;;;;;;7.70;1.23;;;21.70;99.90;;;;;;5061519;28;20059;-66
2022/03/12 00:02:37;;;;;;;5.22;1.00;;;21.90;99.90;;;;;;5062243;28;20127;-66
2022/03/12 00:05:08;;;;;;;6.13;1.30;;;22.40;99.90;;;;;;5061504;28;20055;-66
2022/03/12 00:07:42;;;;;;;6.15;1.02;;;22.60;99.90;;;;;;5059123;28;20147;-66
2022/03/12 00:10:14;;;;;;;5.47;0.60;;;22.90;99.90;;;;;;5062755;28;20077;-65
2022/03/12 00:12:43;;;;;;;7.72;1.02;;;23.00;99.90;;;;;;5057437;28;20484;-65
2022/03/12 00:15:14;;;;;;;3.90;0.70;;;23.20;99.90;;;;;;5069300;28;20025;-66
2022/03/12 00:17:46;;;;;;;5.65;0.73;;;23.30;99.90;;;;;;5056657;28;20579;-66
2022/03/12 00:20:18;;;;;;;3.22;0.80;;;23.70;99.90;;;;;;5074010;28;20492;-66
2022/03/12 00:22:50;;;;;;;1.52;0.30;;;23.60;99.90;;;;;;5058901;28;20033;-66
2022/03/12 00:25:24;;;;;;;4.57;0.55;;;23.20;99.90;;;;;;5054656;28;20400;-66
2022/03/12 00:27:51;;;;;;;5.25;0.52;;;23.00;99.90;;;;;;5063225;28;20029;-66
2022/03/12 00:30:22;;;;;;;4.55;0.50;;;23.20;99.90;;;;;;5064940;28;20053;-66
2022/03/12 00:32:53;;;;;;;3.95;0.70;;;23.10;99.90;;;;;;5057148;28;20033;-65
2022/03/12 00:35:21;;;;;;;1.85;0.40;;;23.00;99.90;;;;;;5071070;28;20089;-66
2022/03/12 00:37:49;;;;;;;3.70;0.70;;;23.00;99.90;;;;;;5062286;28;20087;-66
2022/03/12 00:40:20;;;;;;;6.22;1.30;;;23.20;99.90;;;;;;5064361;28;20028;-66
2022/03/12 00:42:48;;;;;;;5.50;0.50;;;23.20;99.90;;;;;;5062932;28;20032;-66
2022/03/12 00:45:15;;;;;;;2.88;0.68;;;23.20;99.90;;;;;;5062738;28;20036;-66
2022/03/12 00:47:43;;;;;;;4.13;0.50;;;23.40;99.90;;;;;;5063261;28;20032;-66
2022/03/12 00:50:11;;;;;;;4.03;0.88;;;23.80;99.90;;;;;;5061862;28;20048;-66
2022/03/12 00:52:39;;;;;;;4.25;0.90;;;24.20;99.90;;;;;;5066758;28;20049;-66
2022/03/12 00:55:06;;;;;;;5.32;0.63;;;24.50;99.90;;;;;;5061635;28;20032;-66
2022/03/12 00:57:34;;;;;;;11.45;1.10;;;24.70;99.90;;;;;;5062345;28;20025;-66
2022/03/12 01:00:02;;;;;;;2.65;0.43;;;24.80;99.90;;;;;;5064842;28;20021;-66
2022/03/12 01:02:30;;;;;;;3.92;0.60;;;24.90;99.90;;;;;;5063879;28;20070;-66
2022/03/12 01:04:57;;;;;;;6.47;1.05;;;24.70;99.90;;;;;;5068981;28;20124;-66
2022/03/12 01:07:25;;;;;;;3.67;0.98;;;24.30;99.90;;;;;;5059717;28;20017;-66
2022/03/12 01:09:53;;;;;;;3.38;0.45;;;24.10;99.90;;;;;;5061061;28;20028;-67
2022/03/12 01:12:20;;;;;;;5.70;0.98;;;24.00;99.90;;;;;;5074840;28;20030;-65
2022/03/12 01:14:48;;;;;;;2.05;0.45;;;23.70;99.90;;;;;;5076458;28;20021;-65
2022/03/12 01:17:15;;;;;;;2.53;0.50;;;23.70;99.90;;;;;;5063308;28;20068;-65
2022/03/12 01:19:43;;;;;;;3.88;0.68;;;23.60;99.90;;;;;;5060926;28;20032;-65
2022/03/12 01:22:20;;;;;;;3.15;0.60;;;23.60;99.90;;;;;;5067569;28;20040;-65
2022/03/12 01:24:48;;;;;;;5.10;0.77;;;23.80;99.90;;;;;;5070517;28;20369;-65
2022/03/12 01:27:16;;;;;;;4.88;0.52;;;23.80;99.90;;;;;;5062215;28;20029;-67
2022/03/12 01:29:45;;;;;;;2.30;0.35;;;23.80;99.90;;;;;;5066107;28;20032;-68
2022/03/12 01:32:13;;;;;;;8.13;0.85;;;23.90;99.90;;;;;;5061783;28;20028;-66
2022/03/12 01:34:40;;;;;;;5.25;0.55;;;23.80;99.90;;;;;;5064868;28;20032;-66
2022/03/12 01:37:08;;;;;;;2.83;0.30;;;23.50;99.90;;;;;;5064444;28;20035;-66
2022/03/12 01:39:35;;;;;;;5.72;0.65;;;23.40;99.90;;;;;;5063660;28;20021;-66
2022/03/12 01:42:07;;;;;;;4.95;0.57;;;23.20;99.90;;;;;;5067763;28;20036;-66
2022/03/12 01:44:34;;;;;;;4.78;0.40;;;23.30;99.90;;;;;;5072606;28;20032;-67
2022/03/12 01:47:07;;;;;;;6.88;0.65;;;23.40;99.90;;;;;;5074116;28;20040;-66
2022/03/12 01:49:34;;;;;;;2.90;0.50;;;23.20;99.90;;;;;;5074678;28;20028;-68
2022/03/12 01:52:02;;;;;;;2.97;0.50;;;23.20;99.90;;;;;;5073973;28;20035;-67
2022/03/12 01:54:31;;;;;;;4.70;0.50;;;23.00;99.90;;;;;;5076051;28;20041;-67
2022/03/12 01:57:03;;;;;;;5.07;0.50;;;23.00;99.90;;;;;;5077809;28;20025;-68
2022/03/12 01:59:30;;;;;;;6.75;0.60;;;22.90;99.90;;;;;;5076722;28;20029;-67
2022/03/12 02:01:57;;;;;;;2.42;0.52;;;22.90;99.90;;;;;;5078630;28;20078;-67
2022/03/12 02:04:29;;;;;;;3.67;0.73;;;22.80;99.90;;;;;;5076668;28;20031;-67
2022/03/12 02:07:00;;;;;;;3.80;0.30;;;22.70;99.90;;;;;;5088693;28;20001;-68
2022/03/12 02:09:27;;;;;;;4.70;0.35;;;22.90;99.90;;;;;;5081512;28;20024;-68
2022/03/12 02:11:55;;;;;;;4.50;0.47;;;22.90;99.90;;;;;;5078993;28;20043;-68
2022/03/12 02:14:27;;;;;;;3.97;0.30;;;22.90;99.90;;;;;;5081983;28;20075;-66
2022/03/12 02:16:56;;;;;;;5.18;0.40;;;22.80;99.90;;;;;;5068370;28;20083;-67
2022/03/12 02:19:28;;;;;;;7.00;0.57;;;22.70;99.90;;;;;;5082536;28;20138;-66
2022/03/12 02:22:01;;;;;;;3.83;0.80;;;22.50;99.90;;;;;;5071644;28;20033;-66
2022/03/12 02:24:30;;;;;;;2.83;0.30;;;22.50;99.90;;;;;;5069851;28;20028;-67
2022/03/12 02:27:01;;;;;;;4.28;0.65;;;22.70;99.90;;;;;;5069074;28;20041;-67
2022/03/12 02:29:29;;;;;;;6.45;0.90;;;23.10;99.90;;;;;;5069223;28;20033;-67
2022/03/12 02:32:08;;;;;;;4.18;0.40;;;23.60;99.90;;;;;;5083363;28;20017;-67
2022/03/12 02:34:48;;;;;;;4.15;0.38;;;23.90;99.90;;;;;;5081649;28;20128;-66
2022/03/12 02:37:42;;;;;;;4.78;0.75;;;24.20;99.90;;;;;;5077573;28;20037;-66
2022/03/12 02:40:09;;;;;;;2.40;0.28;;;23.80;99.90;;;;;;5068211;28;20029;-67
2022/03/12 02:42:38;;;;;;;7.00;0.70;;;23.80;99.90;;;;;;5071676;28;20052;-67
2022/03/12 02:45:09;;;;;;;12.20;0.77;;;23.90;99.90;;;;;;5065920;28;20063;-67
2022/03/12 02:47:40;;;;;;;2.92;0.80;;;24.20;99.90;;;;;;5059476;28;20029;-67
2022/03/12 02:50:10;;;;;;;5.05;0.73;;;24.20;99.90;;;;;;5061578;28;22628;-67
2022/03/12 02:52:41;;;;;;;3.90;0.40;;;24.30;99.90;;;;;;5059840;28;20020;-67
2022/03/12 02:55:13;;;;;;;4.05;0.70;;;24.20;99.90;;;;;;5063787;28;20037;-70
2022/03/12 02:57:43;;;;;;;3.78;0.30;;;24.30;99.90;;;;;;5069357;28;20036;-68
2022/03/12 03:00:12;;;;;;;3.17;0.40;;;24.30;99.90;;;;;;5071433;28;20036;-67
2022/03/12 03:02:46;;;;;;;2.25;0.60;;;24.50;99.90;;;;;;5062958;28;20408;-67
2022/03/12 03:05:28;;;;;;;4.53;0.75;;;24.30;99.90;;;;;;5078166;28;20029;-67
2022/03/12 03:07:57;;;;;;;3.35;0.63;;;24.10;99.90;;;;;;5068262;28;20021;-67
2022/03/12 03:10:34;;;;;;;3.65;0.50;;;24.40;99.90;;;;;;5072507;28;20073;-67
2022/03/12 03:13:38;;;;;;;5.03;0.30;;;24.10;99.90;;;;;;5068993;28;20035;-66
2022/03/12 03:16:25;;;;;;;4.83;0.70;;;24.30;99.90;;;;;;5059196;28;20158;-67
2022/03/12 03:18:54;;;;;;;4.85;0.70;;;24.30;99.90;;;;;;5074031;28;20028;-67
2022/03/12 03:21:24;;;;;;;3.50;0.60;;;23.80;99.90;;;;;;5083377;28;20096;-68
2022/03/12 03:23:53;;;;;;;2.58;0.60;;;24.00;99.90;;;;;;5083137;28;20024;-68
2022/03/12 03:26:43;;;;;;;4.43;1.10;;;23.60;99.90;;;;;;5078380;28;20021;-68
2022/03/12 03:29:13;;;;;;;5.90;1.00;;;23.70;99.90;;;;;;5065994;28;20028;-68
2022/03/12 03:31:40;;;;;;;4.03;1.02;;;23.80;99.90;;;;;;5062645;28;20028;-69
2022/03/12 03:34:07;;;;;;;2.42;0.82;;;23.90;99.90;;;;;;5058693;28;20039;-68
2022/03/12 03:36:37;;;;;;;5.13;0.52;;;24.00;99.90;;;;;;5062369;28;20028;-68
2022/03/12 03:39:05;;;;;;;2.20;0.40;;;24.00;99.90;;;;;;5061836;28;20020;-68
2022/03/12 03:41:36;;;;;;;1.50;0.30;;;24.00;99.90;;;;;;5068411;28;20144;-67
2022/03/12 03:44:05;;;;;;;3.40;0.50;;;24.00;99.90;;;;;;5064512;28;20039;-69
2022/03/12 03:46:33;;;;;;;4.55;0.35;;;24.10;99.90;;;;;;5070928;28;20028;-68
2022/03/12 03:49:01;;;;;;;1.92;0.28;;;23.90;99.90;;;;;;5066619;28;20558;-67
2022/03/12 03:51:28;;;;;;;2.33;0.28;;;24.10;99.90;;;;;;5057975;28;20083;-68
2022/03/12 03:53:55;;;;;;;3.13;0.50;;;24.10;99.90;;;;;;5067753;28;20029;-68
2022/03/12 03:56:23;;;;;;;2.75;0.77;;;24.20;99.90;;;;;;5054800;28;20441;-67
2022/03/12 03:58:50;;;;;;;4.00;0.20;;;23.90;99.90;;;;;;5056541;28;20430;-69
2022/03/12 04:01:22;;;;;;;4.53;0.82;;;23.90;99.90;;;;;;5067451;28;20382;-68
2022/03/12 04:03:51;;;;;;;1.83;0.32;;;24.00;99.90;;;;;;5058148;28;20029;-68
2022/03/12 04:06:21;;;;;;;3.25;0.70;;;23.80;99.90;;;;;;5061515;28;20021;-68
2022/03/12 04:08:49;;;;;;;3.95;0.75;;;23.80;99.90;;;;;;5067895;28;20069;-67
2022/03/12 04:11:24;;;;;;;3.40;0.63;;;23.70;99.90;;;;;;5066508;28;20108;-67
2022/03/12 04:13:54;;;;;;;3.05;0.40;;;23.80;99.90;;;;;;5080815;28;20031;-68
2022/03/12 04:16:22;;;;;;;6.30;0.30;;;23.80;99.90;;;;;;5072507;28;20025;-68
2022/03/12 04:18:50;;;;;;;4.63;1.20;;;23.70;99.90;;;;;;5074828;28;20445;-67
2022/03/12 04:21:22;;;;;;;4.35;0.50;;;23.80;99.90;;;;;;5074664;28;20372;-67
2022/03/12 04:23:49;;;;;;;3.10;0.35;;;23.80;99.90;;;;;;5062157;28;20024;-67
2022/03/12 04:26:17;;;;;;;4.63;0.60;;;23.80;99.90;;;;;;5056273;28;20029;-68
2022/03/12 04:28:45;;;;;;;4.57;0.60;;;23.80;99.90;;;;;;5057268;28;20017;-68
2022/03/12 04:31:13;;;;;;;5.20;0.30;;;23.70;99.90;;;;;;5056960;28;20059;-67
2022/03/12 04:33:40;;;;;;;3.30;0.22;;;23.70;99.90;;;;;;5063518;28;20436;-67
2022/03/12 04:36:12;;;;;;;2.30;0.40;;;23.80;99.90;;;;;;5057398;28;20075;-67
2022/03/12 04:38:40;;;;;;;5.50;0.52;;;23.90;99.90;;;;;;5055346;28;20508;-67
2022/03/12 04:41:08;;;;;;;5.53;0.40;;;23.70;99.90;;;;;;5057567;28;20031;-67
2022/03/12 04:43:35;;;;;;;2.38;0.30;;;23.70;99.90;;;;;;5065515;28;20763;-68
2022/03/12 04:46:03;;;;;;;4.13;0.50;;;23.60;99.90;;;;;;5057140;28;20053;-67
2022/03/12 04:48:30;;;;;;;2.95;0.43;;;23.40;99.90;;;;;;5064255;28;20476;-68
2022/03/12 04:50:58;;;;;;;3.85;0.40;;;23.40;99.90;;;;;;5056367;28;20083;-68
2022/03/12 04:53:26;;;;;;;4.43;0.45;;;23.20;99.90;;;;;;5056886;28;20067;-68
2022/03/12 04:55:54;;;;;;;1.05;0.40;;;23.20;99.90;;;;;;5079221;28;20042;-68
2022/03/12 04:58:21;;;;;;;4.75;0.40;;;23.30;99.90;;;;;;5079515;28;20024;-68
2022/03/12 05:00:49;;;;;;;2.22;0.40;;;23.40;99.90;;;;;;5097024;28;20032;-67
2022/03/12 05:03:25;;;;;;;3.55;0.47;;;23.30;99.90;;;;;;5097208;28;20016;-69
2022/03/12 05:05:54;;;;;;;3.60;0.30;;;23.40;99.90;;;;;;5085421;28;20013;-68
2022/03/12 05:08:25;;;;;;;2.22;0.40;;;23.40;99.90;;;;;;5090792;28;20004;-68
2022/03/12 05:10:55;;;;;;;3.58;0.73;;;23.30;99.90;;;;;;5098868;28;20028;-68
2022/03/12 05:13:24;;;;;;;2.28;0.30;;;23.30;99.90;;;;;;5098979;28;20042;-69
2022/03/12 05:15:55;;;;;;;3.38;0.68;;;23.40;99.90;;;;;;5094002;28;20020;-68
2022/03/12 05:18:25;;;;;;;2.42;0.32;;;23.30;99.90;;;;;;5097157;28;20050;-68
2022/03/12 05:20:54;;;;;;;1.27;0.20;;;23.30;99.90;;;;;;5096250;28;20090;-69
2022/03/12 05:23:21;;;;;;;1.38;0.10;;;23.30;99.90;;;;;;5087401;28;20005;-68
2022/03/12 05:25:50;;;;;;;3.30;0.63;;;23.30;99.90;;;;;;5091989;28;20029;-68
2022/03/12 05:28:26;;;;;;;2.35;0.57;;;23.40;99.90;;;;;;5079709;28;20017;-68
2022/03/12 05:30:57;;;;;;;2.45;0.22;;;23.30;99.90;;;;;;5078878;28;20020;-67
2022/03/12 05:33:25;;;;;;;2.67;0.28;;;23.30;99.90;;;;;;5078493;28;20028;-68
2022/03/12 05:35:56;;;;;;;1.92;0.28;;;23.20;99.90;;;;;;5078402;28;20056;-68
2022/03/12 05:38:28;;;;;;;1.88;0.30;;;23.20;99.90;;;;;;5078648;28;20009;-67
2022/03/12 05:40:56;;;;;;;2.13;0.20;;;23.30;99.90;;;;;;5079853;28;20004;-68
2022/03/12 05:43:25;;;;;;;3.40;0.50;;;23.20;99.90;;;;;;5078654;28;20017;-68
2022/03/12 05:45:53;;;;;;;2.20;0.60;;;23.20;99.90;;;;;;5078094;28;20024;-68
2022/03/12 05:48:21;;;;;;;3.60;0.32;;;23.20;99.90;;;;;;5084314;28;20009;-67
2022/03/12 05:50:49;;;;;;;6.07;0.98;;;23.20;99.90;;;;;;5094022;28;20063;-68
2022/03/12 05:53:19;;;;;;;1.75;0.40;;;23.10;99.90;;;;;;5095826;28;20037;-68
2022/03/12 05:55:47;;;;;;;2.17;0.40;;;23.00;99.90;;;;;;5089104;28;20019;-68
2022/03/12 05:58:17;;;;;;;1.90;0.20;;;23.00;99.90;;;;;;5082304;28;20113;-68
2022/03/12 06:00:46;;;;;;;3.45;0.50;;;23.10;99.90;;;;;;5073738;28;20801;-67
2022/03/12 06:03:13;;;;;;;3.55;0.50;;;23.10;99.90;;;;;;5079208;28;20032;-68
2022/03/12 06:05:43;;;;;;;6.00;0.80;;;23.00;99.90;;;;;;5086039;28;20016;-67
2022/03/12 06:08:22;;;;;;;4.10;0.77;;;23.00;99.90;;;;;;5089653;28;20005;-69
2022/03/12 06:10:52;;;;;;;2.58;0.45;;;23.00;99.90;;;;;;5081655;28;20017;-67
2022/03/12 06:13:23;;;;;;;2.88;0.30;;;22.90;99.90;;;;;;5082163;28;20182;-67
2022/03/12 06:15:58;;;;;;;2.30;0.52;;;22.90;99.90;;;;;;5077313;28;20078;-68
2022/03/12 06:18:30;;;;;;;5.82;0.85;;;22.90;99.90;;;;;;5073381;28;20013;-67
2022/03/12 06:20:58;;;;;;;2.58;0.30;;;23.00;99.90;;;;;;5070358;28;20017;-67
2022/03/12 06:23:26;;;;;;;2.65;0.20;;;22.90;99.90;;;;;;5069894;28;20025;-67
2022/03/12 06:25:53;;;;;;;2.83;0.30;;;22.80;99.90;;;;;;5082001;28;20098;-67
2022/03/12 06:28:21;;;;;;;2.28;0.40;;;22.80;99.90;;;;;;5082268;28;20091;-66
2022/03/12 06:30:53;;;;;;;4.13;0.20;;;22.80;99.90;;;;;;5068824;28;20384;-67
2022/03/12 06:33:22;;;;;;;3.05;0.45;;;22.80;99.90;;;;;;5075267;28;20037;-67
2022/03/12 06:35:51;;;;;;;3.67;0.30;;;22.70;99.90;;;;;;5073575;28;20021;-67
2022/03/12 06:38:19;;;;;;;4.55;1.08;;;22.70;99.90;;;;;;5077612;28;20013;-67
2022/03/12 06:40:46;;;;;;;3.97;0.40;;;22.70;99.90;;;;;;5074312;28;20111;-67
2022/03/12 06:43:18;;;;;;;2.72;0.30;;;22.60;99.90;;;;;;5072338;28;20029;-68
2022/03/12 06:45:46;;;;;;;2.28;0.30;;;22.60;99.90;;;;;;5074451;28;20032;-67
2022/03/12 06:48:14;;;;;;;2.92;0.50;;;22.50;99.90;;;;;;5065469;28;20412;-68
2022/03/12 06:50:41;;;;;;;3.00;0.30;;;22.50;99.90;;;;;;5068676;28;20064;-67
2022/03/12 06:53:09;;;;;;;2.97;0.35;;;22.50;99.90;;;;;;5074279;28;20056;-67
2022/03/12 06:55:36;;;;;;;2.88;0.30;;;22.60;99.90;;;;;;5076519;28;20116;-68
2022/03/12 06:58:03;;;;;;;4.07;0.70;;;22.60;99.90;;;;;;5075705;28;20043;-67
2022/03/12 07:00:32;;;;;;;3.08;0.50;;;22.50;99.90;;;;;;5073497;28;20028;-67
2022/03/12 07:02:59;;;;;;;2.40;0.40;;;22.30;99.90;;;;;;5073821;28;20040;-68
2022/03/12 07:05:27;;;;;;;3.33;0.20;;;22.30;99.90;;;;;;5074815;28;20025;-68
2022/03/12 07:07:56;;;;;;;2.38;0.20;;;22.20;99.90;;;;;;5071787;28;20035;-67
2022/03/12 07:10:24;;;;;;;2.25;0.20;;;22.20;99.90;;;;;;5066997;28;20028;-68
2022/03/12 07:12:51;;;;;;;1.75;0.30;;;22.30;99.90;;;;;;5076556;28;20033;-68
2022/03/12 07:15:21;;;;;;;1.67;0.40;;;22.20;99.90;;;;;;5078265;28;20017;-68
2022/03/12 07:17:49;;;;;;;2.67;0.50;;;22.20;99.90;;;;;;5079768;28;20013;-68
2022/03/12 07:20:17;;;;;;;3.42;0.55;;;22.20;99.90;;;;;;5082054;28;20026;-68
2022/03/12 07:22:46;;;;;;;1.75;0.30;;;22.20;99.90;;;;;;5087871;28;20040;-68
2022/03/12 07:25:14;;;;;;;5.05;0.40;;;22.50;99.90;;;;;;5097855;28;20028;-68
2022/03/12 07:27:42;;;;;;;3.42;0.50;;;22.70;99.90;;;;;;5081102;28;20017;-68
2022/03/12 07:30:13;;;;;;;2.70;0.63;;;23.00;99.90;;;;;;5081307;28;20021;-68
2022/03/12 07:32:42;;;;;;;1.70;0.32;;;22.60;99.90;;;;;;5080997;28;20009;-68
2022/03/12 07:35:14;;;;;;;1.48;0.20;;;22.30;99.90;;;;;;5081932;28;20025;-68
2022/03/12 07:37:42;;;;;;;4.40;0.38;;;22.20;99.90;;;;;;5081360;28;20041;-68
2022/03/12 07:40:12;;;;;;;3.22;0.63;;;22.00;99.90;;;;;;5082465;28;20028;-67
2022/03/12 07:42:40;;;;;;;2.25;0.30;;;21.90;99.90;;;;;;5081977;28;20027;-68
2022/03/12 07:45:09;;;;;;;1.92;0.30;;;21.80;99.90;;;;;;5085042;28;20028;-68
2022/03/12 07:47:37;;;;;;;1.33;0.20;;;21.80;99.90;;;;;;5080318;28;20013;-68
2022/03/12 07:50:06;;;;;;;1.75;0.20;;;21.70;99.90;;;;;;5080617;28;20029;-68
2022/03/12 07:52:34;;;;;;;3.58;0.43;;;21.70;99.90;;;;;;5081731;28;20028;-68
2022/03/12 07:55:02;;;;;;;2.42;0.32;;;21.70;99.90;;;;;;5081479;28;20039;-68
2022/03/12 07:57:30;;;;;;;2.95;0.57;;;21.70;99.90;;;;;;5080271;28;20044;-68
2022/03/12 07:59:57;;;;;;;2.88;0.40;;;21.60;99.90;;;;;;5084211;28;20007;-68
2022/03/12 08:02:24;;;;;;;4.93;0.60;;;21.50;99.90;;;;;;5080809;28;20020;-68
2022/03/12 08:04:51;;;;;;;3.60;0.30;;;21.50;99.90;;;;;;5080386;28;19997;-68
2022/03/12 08:07:19;;;;;;;2.70;0.47;;;21.50;99.90;;;;;;5080747;28;20020;-67
2022/03/12 08:09:46;;;;;;;2.15;0.32;;;21.50;99.90;;;;;;5080450;28;20012;-67
2022/03/12 08:12:15;;;;;;;3.55;0.40;;;21.40;99.90;;;;;;5081582;28;20021;-68
2022/03/12 08:14:44;;;;;;;3.97;0.40;;;21.40;99.90;;;;;;5080789;28;20047;-68
2022/03/12 08:17:12;;;;;;;2.80;0.30;;;21.40;99.90;;;;;;5082351;28;20009;-67
2022/03/12 08:19:39;;;;;;;3.55;0.65;;;21.30;99.90;;;;;;5086610;28;20017;-67
2022/03/12 08:22:07;;;;;;;3.35;0.43;;;21.40;99.90;;;;;;5080987;28;20013;-68
2022/03/12 08:24:34;;;;;;;1.42;0.30;;;21.40;99.90;;;;;;5080059;28;20082;-68
2022/03/12 08:27:01;;;;;;;2.30;0.35;;;21.30;99.90;;;;;;5078661;28;20012;-68
2022/03/12 08:29:28;;;;;;;1.63;0.22;;;21.30;99.90;;;;;;5082246;28;20025;-68
2022/03/12 08:31:56;;;;;;;3.22;0.68;;;21.40;99.90;;;;;;5080456;28;20016;-67
2022/03/12 08:34:24;;;;;;;3.08;0.40;;;21.30;99.90;;;;;;5092932;28;20082;-67
2022/03/12 08:36:51;;;;;;;1.58;0.20;;;21.20;99.90;;;;;;5083399;28;20069;-67
2022/03/12 08:39:19;;;;;;;1.67;0.20;;;21.20;99.90;;;;;;5084754;28;20032;-67
2022/03/12 08:41:47;;;;;;;4.32;0.88;;;21.20;99.90;;;;;;5098393;28;20012;-67
2022/03/12 08:44:14;;;;;;;3.15;0.50;;;21.20;99.90;;;;;;5100201;28;20319;-67
2022/03/12 08:46:46;;;;;;;3.97;0.38;;;21.20;99.90;;;;;;5095261;28;20117;-67
2022/03/12 08:49:14;;;;;;;5.45;0.65;;;21.20;99.90;;;;;;5079859;28;20063;-67
2022/03/12 08:51:41;;;;;;;3.80;0.43;;;21.20;99.90;;;;;;5079934;28;20031;-67
2022/03/12 08:54:10;;;;;;;2.85;0.65;;;21.20;99.90;;;;;;5079955;28;20017;-68
2022/03/12 08:56:37;;;;;;;4.20;0.60;;;21.10;99.90;;;;;;5079918;28;20013;-68
2022/03/12 08:59:05;;;;;;;4.30;0.70;;;21.10;99.90;;;;;;5079910;28;20089;-67
2022/03/12 09:01:34;;;;;;;4.10;0.32;;;21.10;99.90;;;;;;5092573;28;20213;-68
2022/03/12 09:04:02;;;;;;;2.25;0.30;;;21.10;99.90;;;;;;5099799;28;20027;-67
2022/03/12 09:06:31;;;;;;;4.70;0.68;;;21.20;99.90;;;;;;5085613;28;20013;-67
2022/03/12 09:08:58;;;;;;;7.20;1.17;;;21.20;99.90;;;;;;5094355;28;20085;-67
2022/03/12 09:11:25;;;;;;;2.83;0.40;;;21.10;99.90;;;;;;5085724;28;20009;-67
2022/03/12 09:13:53;;;;;;;2.60;0.38;;;21.10;99.90;;;;;;5090987;28;20028;-67
2022/03/12 09:16:22;;;;;;;5.00;0.70;;;21.10;99.90;;;;;;5080413;28;20041;-67
2022/03/12 09:18:50;;;;;;;4.50;0.85;;;21.00;99.90;;;;;;5079223;28;20017;-67
2022/03/12 09:21:18;;;;;;;4.07;0.50;;;21.00;99.90;;;;;;5079839;28;20024;-67
2022/03/12 09:23:45;;;;;;;5.10;0.73;;;21.00;99.90;;;;;;5078774;28;20013;-67
2022/03/12 09:26:13;;;;;;;2.40;0.68;;;21.00;99.90;;;;;;5079364;28;20040;-67
2022/03/12 09:28:41;;;;;;;2.47;0.70;;;21.00;99.90;;;;;;5079005;28;20025;-67
2022/03/12 09:31:09;;;;;;;4.93;0.60;;;21.00;99.90;;;;;;5082401;28;20019;-67
2022/03/12 09:33:38;;;;;;;3.78;0.65;;;21.10;99.90;;;;;;5078711;28;20029;-67
2022/03/12 09:36:09;;;;;;;7.22;0.80;;;21.00;99.90;;;;;;5078708;28;20017;-67
2022/03/12 09:38:37;;;;;;;1.45;0.30;;;21.00;99.90;;;;;;5083645;28;20035;-68
2022/03/12 09:41:05;;;;;;;1.25;0.43;;;21.00;99.90;;;;;;5086601;28;20021;-67
2022/03/12 09:43:32;;;;;;;2.80;0.55;;;21.00;99.90;;;;;;5078706;28;20008;-67
2022/03/12 09:46:00;;;;;;;3.45;0.73;;;21.00;99.90;;;;;;5079140;28;20025;-67
2022/03/12 09:48:27;;;;;;;1.85;0.35;;;20.90;99.90;;;;;;5077931;28;20005;-67
2022/03/12 09:50:55;;;;;;;5.35;0.55;;;20.80;99.90;;;;;;5078737;28;20029;-68
2022/03/12 09:53:23;;;;;;;5.53;0.40;;;20.90;99.90;;;;;;5078558;28;20021;-67
2022/03/12 09:55:50;;;;;;;9.40;1.13;;;20.90;99.90;;;;;;5078513;28;20028;-67
2022/03/12 09:58:18;;;;;;;3.28;0.70;;;20.90;99.90;;;;;;5078489;28;20033;-68
2022/03/12 10:00:46;;;;;;;6.82;1.30;;;20.90;99.90;;;;;;5090514;28;20037;-67
2022/03/12 10:03:13;;;;;;;4.10;0.60;;;20.90;99.90;;;;;;5078354;28;20037;-67
2022/03/12 10:05:40;;;;;;;6.80;0.60;;;20.80;99.90;;;;;;5078622;28;20072;-67
2022/03/12 10:08:07;;;;;;;1.52;0.50;;;20.90;99.90;;;;;;5084723;28;20008;-67
2022/03/12 10:10:35;;;;;;;5.13;0.50;;;20.90;99.90;;;;;;5078615;28;20017;-67
2022/03/12 10:13:03;;;;;;;4.93;0.95;;;20.80;99.90;;;;;;5078122;28;20017;-65
2022/03/12 10:15:31;;;;;;;5.90;0.70;;;20.80;99.90;;;;;;5079278;28;20080;-67
2022/03/12 10:18:00;;;;;;;2.08;0.50;;;20.80;99.90;;;;;;5077524;28;20020;-68
2022/03/12 10:20:28;;;;;;;5.13;0.63;;;20.80;99.90;;;;;;5077848;28;20005;-67
2022/03/12 10:22:55;;;;;;;4.97;1.02;;;20.70;99.90;;;;;;5078013;28;20020;-67
2022/03/12 10:25:29;;;;;;;7.75;0.50;;;20.70;99.90;;;;;;5080877;28;20034;-68
2022/03/12 10:27:56;;;;;;;7.10;0.82;;;20.70;99.90;;;;;;5097131;28;20013;-67
2022/03/12 10:30:23;;;;;;;3.42;0.50;;;20.70;99.90;;;;;;5095953;28;20013;-67
2022/03/12 10:32:52;;;;;;;4.03;0.60;;;20.70;99.90;;;;;;5098053;28;20036;-67
2022/03/12 10:35:22;;;;;;;6.32;0.47;;;20.70;99.90;;;;;;5094458;28;20151;-67
2022/03/12 10:37:51;;;;;;;8.65;0.68;;;20.70;99.90;;;;;;5077733;28;20013;-67
2022/03/12 10:40:20;;;;;;;4.22;0.55;;;20.70;99.90;;;;;;5080203;28;20104;-67
2022/03/12 10:42:59;;;;;;;5.30;0.68;;;20.60;99.90;;;;;;5077051;28;20024;-67
2022/03/12 10:45:31;;;;;;;3.08;0.38;;;20.60;99.90;;;;;;5077808;28;20020;-67
2022/03/12 10:48:03;;;;;;;3.65;0.40;;;20.60;99.90;;;;;;5092692;28;20017;-67
2022/03/12 10:50:42;;;;;;;6.63;1.00;;;20.60;99.90;;;;;;5093715;28;20096;-67
2022/03/12 10:53:11;;;;;;;2.38;0.40;;;20.70;99.90;;;;;;5081988;28;20027;-67
2022/03/12 10:55:44;;;;;;;7.13;0.80;;;20.70;99.90;;;;;;5094898;28;20017;-67
2022/03/12 10:58:12;;;;;;;6.75;0.75;;;20.70;99.90;;;;;;5088855;28;20007;-67
2022/03/12 11:00:48;;;;;;;5.28;0.50;;;20.80;99.90;;;;;;5092677;28;20013;-67
2022/03/12 11:03:20;;;;;;;3.30;0.65;;;20.80;99.90;;;;;;5084964;28;20017;-67
2022/03/12 11:05:49;;;;;;;2.92;0.63;;;20.70;99.90;;;;;;5081983;28;20037;-67
2022/03/12 11:08:33;;;;;;;7.55;1.13;;;20.70;99.90;;;;;;5082280;28;20048;-67
2022/03/12 11:11:15;;;;;;;3.55;0.68;;;20.60;99.90;;;;;;5082328;28;20037;-67
2022/03/12 11:13:50;;;;;;;3.70;0.90;;;20.60;99.90;;;;;;5095094;28;20096;-67
2022/03/12 11:16:33;;;;;;;2.63;0.77;;;20.50;99.90;;;;;;5087001;28;20013;-67
2022/03/12 11:19:12;;;;;;;3.97;0.88;;;20.50;99.90;;;;;;5081643;28;20013;-68
2022/03/12 11:21:51;;;;;;;2.78;0.70;;;20.40;99.90;;;;;;5094821;28;20083;-67
2022/03/12 11:24:51;;;;;;;8.77;1.92;;;20.40;99.90;;;;;;5101454;28;20012;-67
2022/03/12 11:27:38;;;;;;;4.68;0.60;;;20.30;99.90;;;;;;5076849;28;20025;-67
2022/03/12 11:30:11;;;;;;;6.78;0.80;;;20.20;99.90;;;;;;5081559;28;20077;-68
2022/03/12 11:32:45;;;;;;;4.72;0.77;;;20.20;99.90;;;;;;5081206;28;20028;-67
2022/03/12 11:35:20;;;;;;;4.85;0.30;;;20.20;99.90;;;;;;5082201;28;20040;-67
2022/03/12 11:37:47;;;;;;;6.20;1.17;;;20.30;99.90;;;;;;5080652;28;20017;-67
2022/03/12 11:40:19;;;;;;;2.88;0.63;;;20.30;99.90;;;;;;5081102;28;20017;-67
2022/03/12 11:42:49;;;;;;;4.88;1.02;;;20.30;99.90;;;;;;5081074;28;20017;-67
2022/03/12 11:45:20;;;;;;;3.03;0.50;;;20.20;99.90;;;;;;5081515;28;20047;-67
2022/03/12 11:47:48;;;;;;;9.57;1.38;;;20.20;99.90;;;;;;5080966;28;20021;-67
2022/03/12 11:50:22;;;;;;;5.22;1.60;;;20.10;99.90;;;;;;5081269;28;20056;-67
2022/03/12 11:52:49;;;;;;;5.20;1.05;;;20.00;99.90;;;;;;5079876;28;20025;-67
2022/03/12 11:55:37;;;;;;;4.93;0.68;;;20.00;99.90;;;;;;5081068;28;20017;-68
2022/03/12 11:58:05;;;;;;;3.83;0.55;;;20.00;99.90;;;;;;5081836;28;20017;-67
2022/03/12 12:00:33;;;;;;;3.85;0.57;;;20.00;99.90;;;;;;5083314;28;20024;-67
2022/03/12 12:03:00;;;;;;;5.32;0.50;;;20.00;99.90;;;;;;5086650;28;20024;-67
2022/03/12 12:05:29;;;;;;;2.75;0.63;;;20.00;99.90;;;;;;5085316;28;20045;-67
2022/03/12 12:07:57;;;;;;;7.82;0.77;;;20.00;99.90;;;;;;5086167;28;20028;-67
2022/03/12 12:10:30;;;;;;;3.95;0.47;;;20.00;99.90;;;;;;5093085;28;20020;-67
2022/03/12 12:12:58;;;;;;;3.65;0.40;;;19.90;99.90;;;;;;5082521;28;20009;-67
2022/03/12 12:15:32;;;;;;;6.20;1.15;;;19.80;99.90;;;;;;5082799;28;20028;-67
2022/03/12 12:18:04;;;;;;;5.18;0.47;;;19.80;99.90;;;;;;5092053;28;20035;-67
2022/03/12 12:20:32;;;;;;;2.72;0.63;;;19.80;99.90;;;;;;5079798;28;20068;-67
2022/03/12 12:23:01;;;;;;;5.82;1.25;;;19.70;99.90;;;;;;5085343;28;20013;-67
2022/03/12 12:25:34;;;;;;;6.15;1.00;;;19.70;99.90;;;;;;5093284;28;20036;-67
2022/03/12 12:28:22;;;;;;;5.57;1.30;;;19.60;99.90;;;;;;5079381;28;20017;-67
2022/03/12 12:30:54;;;;;;;6.25;0.85;;;19.60;99.90;;;;;;5082157;28;20017;-67
2022/03/12 12:33:29;;;;;;;5.32;0.57;;;19.60;99.90;;;;;;5087313;28;20024;-67
2022/03/12 12:36:17;;;;;;;5.40;1.23;;;19.60;99.90;;;;;;5080607;28;20005;-67
2022/03/12 12:39:10;;;;;;;6.15;0.85;;;19.50;99.90;;;;;;5079515;28;20040;-67
2022/03/12 12:42:05;;;;;;;3.17;0.80;;;19.50;99.90;;;;;;5081251;28;20029;-67
2022/03/12 12:44:42;;;;;;;2.88;0.52;;;19.40;99.90;;;;;;5082500;28;20017;-67
2022/03/12 12:47:21;;;;;;;7.82;1.30;;;19.40;99.90;;;;;;5091160;28;20044;-67
2022/03/12 12:49:56;;;;;;;6.10;1.20;;;19.40;99.90;;;;;;5078425;28;20093;-67
2022/03/12 12:52:26;;;;;;;6.78;1.52;;;19.40;99.90;;;;;;5085678;28;20033;-67
2022/03/12 12:55:02;;;;;;;6.95;2.05;;;19.50;99.90;;;;;;5080321;28;20017;-67
2022/03/12 12:57:44;;;;;;;5.32;1.60;;;19.50;99.90;;;;;;5079067;28;20072;-67
2022/03/12 13:00:21;;;;;;;4.38;1.77;;;19.60;99.90;;;;;;5079138;28;20033;-67
2022/03/12 13:02:49;;;;;;;4.32;1.48;;;19.60;99.90;;;;;;5079200;28;20075;-67